^^
Saratoga-Weather Station Historical Data
Daily Summary for July 20, 2020 Units:  Metric    English   Both
Daily Weekly Monthly Yearly Custom
  High: Low: Average:
Temperature: 34.9 °C 17.9 °C 25.2 °C
Dew Point: 20.1 °C 14.1 °C 17.6 °C
Humidity: 97% 30% 68%
Wind Speed: 13km/h 0km/h 1.7km/h
Wind Gust: 17.7km/h - -
Wind- - ESE
Pressure: 1007.8 hPa 1005.1 hPa -
Precipitation: 0.5 mm    
Historical Graphs
 
 
Tabular Data for July 20, 2020
Time Temperature Dew Point Pressure Wind Wind Speed Wind Gust Humidity Rainfall Rate (Hourly) solar
00:03 20.1 °C 17.7 °C 1006.4 hPa Calm     86% 0.0 mm 0 W/m2
00:08 20.1 °C 17.7 °C 1006.4 hPa Calm     86% 0.0 mm 0 W/m2
00:13 20.1 °C 17.7 °C 1006.4 hPa Calm     86% 0.0 mm 0 W/m2
00:18 20 °C 17.8 °C 1006.4 hPa Calm     87% 0.0 mm 0 W/m2
00:23 19.9 °C 17.7 °C 1006.4 hPa Calm     87% 0.0 mm 0 W/m2
00:28 19.8 °C 17.6 °C 1006.4 hPa Calm     87% 0.0 mm 0 W/m2
00:33 19.8 °C 17.8 °C 1006.8 hPa West 1.4 km/h 1.6 km/h 88% 0.0 mm 0 W/m2
00:38 19.7 °C 17.7 °C 1006.8 hPa Calm   1.6 km/h 88% 0.0 mm 0 W/m2
00:43 19.7 °C 17.7 °C 1006.8 hPa Calm     88% 0.0 mm 0 W/m2
00:48 19.6 °C 17.7 °C 1006.8 hPa Calm   1.6 km/h 89% 0.0 mm 0 W/m2
00:53 19.6 °C 17.6 °C 1007.1 hPa Calm     88% 0.0 mm 0 W/m2
00:58 19.6 °C 17.6 °C 1007.1 hPa Calm     88% 0.0 mm 0 W/m2
01:03 19.6 °C 17.7 °C 1007.1 hPa Calm     89% 0.0 mm 0 W/m2
01:08 19.6 °C 17.7 °C 1007.1 hPa Calm     89% 0.0 mm 0 W/m2
01:13 19.6 °C 17.7 °C 1007.1 hPa Calm     89% 0.0 mm 0 W/m2
01:18 19.5 °C 17.6 °C 1007.1 hPa Calm     89% 0.0 mm 0 W/m2
01:23 19.5 °C 17.6 °C 1007.5 hPa West 1.6 km/h 1.6 km/h 89% 0.2 mm 0 W/m2
01:28 19.4 °C 17.7 °C 1007.5 hPa Calm     90% 0.5 mm 0 W/m2
01:33 19.4 °C 17.7 °C 1007.5 hPa Calm     90% 0.5 mm 0 W/m2
01:38 19.3 °C 17.6 °C 1007.5 hPa Calm     90% 0.5 mm 0 W/m2
01:43 19.1 °C 17.6 °C 1007.5 hPa Calm     91% 0.5 mm 0 W/m2
01:48 18.9 °C 17.4 °C 1007.5 hPa Calm     91% 0.5 mm 0 W/m2
01:53 18.9 °C 17.4 °C 1007.1 hPa West 3.2 km/h 3.2 km/h 91% 0.5 mm 0 W/m2
01:58 18.8 °C 17.5 °C 1007.1 hPa East 1.4 km/h 3.2 km/h 92% 0.5 mm 0 W/m2
02:03 18.7 °C 17.4 °C 1007.1 hPa East 1.4 km/h 3.2 km/h 92% 0.5 mm 0 W/m2
02:08 18.7 °C 17.5 °C 1006.8 hPa ENE 1.4 km/h 6.4 km/h 93% 0.5 mm 0 W/m2
02:13 18.7 °C 17.5 °C 1006.8 hPa East 1.4 km/h 4.8 km/h 93% 0.5 mm 0 W/m2
02:18 18.7 °C 17.5 °C 1006.8 hPa Calm     93% 0.5 mm 0 W/m2
02:23 18.7 °C 17.5 °C 1006.8 hPa Calm     93% 0.5 mm 0 W/m2
02:28 18.7 °C 17.5 °C 1006.8 hPa Calm     93% 0.2 mm 0 W/m2
02:34 18.7 °C 17.5 °C 1006.8 hPa Calm     93% 0.2 mm 0 W/m2
02:39 18.7 °C 17.5 °C 1006.8 hPa Calm     93% 0.0 mm 0 W/m2
02:44 18.6 °C 17.4 °C 1006.8 hPa Calm     93% 0.0 mm 0 W/m2
02:49 18.6 °C 17.6 °C 1006.8 hPa Calm     94% 0.0 mm 0 W/m2
02:54 18.6 °C 17.6 °C 1006.8 hPa Calm     94% 0.0 mm 0 W/m2
02:59 18.5 °C 17.5 °C 1006.8 hPa Calm   1.6 km/h 94% 0.0 mm 0 W/m2
03:04 18.5 °C 17.5 °C 1006.8 hPa Calm     94% 0.0 mm 0 W/m2
03:09 18.4 °C 17.4 °C 1006.8 hPa Calm   1.6 km/h 94% 0.0 mm 0 W/m2
03:14 18.4 °C 17.4 °C 1006.8 hPa Calm     94% 0.0 mm 0 W/m2
03:19 18.3 °C 17.3 °C 1006.8 hPa Calm   1.6 km/h 94% 0.0 mm 0 W/m2
03:24 18.3 °C 17.3 °C 1006.8 hPa Calm     94% 0.0 mm 0 W/m2
03:29 18.3 °C 17.3 °C 1006.8 hPa Calm   1.6 km/h 94% 0.0 mm 0 W/m2
03:34 18.2 °C 17.2 °C 1006.8 hPa Calm     94% 0.0 mm 0 W/m2
03:39 18.3 °C 17.5 °C 1006.8 hPa Calm     95% 0.0 mm 0 W/m2
03:45 18.3 °C 17.5 °C 1006.8 hPa Calm     95% 0.0 mm 0 W/m2
03:50 18.3 °C 17.5 °C 1006.8 hPa Calm     95% 0.0 mm 0 W/m2
03:55 18.3 °C 17.5 °C 1006.8 hPa Calm     95% 0.0 mm 0 W/m2
04:00 18.2 °C 17.4 °C 1006.8 hPa Calm     95% 0.0 mm 0 W/m2
04:05 18.2 °C 17.4 °C 1006.8 hPa Calm     95% 0.0 mm 0 W/m2
04:10 18.2 °C 17.4 °C 1006.8 hPa Calm     95% 0.0 mm 0 W/m2
04:15 18.2 °C 17.4 °C 1006.8 hPa Calm     95% 0.0 mm 0 W/m2
04:20 18.2 °C 17.4 °C 1006.8 hPa Calm     95% 0.0 mm 0 W/m2
04:25 18.2 °C 17.4 °C 1006.8 hPa Calm     95% 0.0 mm 0 W/m2
04:30 18.2 °C 17.4 °C 1006.4 hPa Calm     95% 0.0 mm 0 W/m2
04:35 18.2 °C 17.4 °C 1006.4 hPa Calm     95% 0.0 mm 0 W/m2
04:40 18.2 °C 17.4 °C 1006.4 hPa Calm     95% 0.0 mm 0 W/m2
04:45 18.1 °C 17.3 °C 1006.4 hPa Calm     95% 0.0 mm 0 W/m2
04:50 18.1 °C 17.3 °C 1006.4 hPa Calm     95% 0.0 mm 0 W/m2
04:55 18.1 °C 17.3 °C 1006.4 hPa Calm     95% 0.0 mm 0 W/m2
05:00 18.1 °C 17.3 °C 1006.4 hPa Calm     95% 0.0 mm 0 W/m2
05:05 18.1 °C 17.3 °C 1006.4 hPa Calm     95% 0.0 mm 0 W/m2
05:10 18 °C 17.2 °C 1006.4 hPa Calm     95% 0.0 mm 0 W/m2
05:15 18 °C 17.2 °C 1006.4 hPa Calm     95% 0.0 mm 0 W/m2
05:20 17.9 °C 17.1 °C 1006.4 hPa Calm     95% 0.0 mm 0 W/m2
05:25 17.9 °C 17.1 °C 1006.4 hPa Calm     95% 0.0 mm 0 W/m2
05:30 17.9 °C 17.1 °C 1006.4 hPa Calm     95% 0.0 mm 0 W/m2
05:35 17.9 °C 17.3 °C 1006.4 hPa Calm     96% 0.0 mm 0 W/m2
05:40 17.9 °C 17.3 °C 1006.8 hPa Calm     96% 0.0 mm 0 W/m2
05:45 17.9 °C 17.3 °C 1006.8 hPa Calm     96% 0.0 mm 0 W/m2
05:50 17.9 °C 17.3 °C 1006.8 hPa Calm     96% 0.0 mm 0 W/m2
05:55 18.1 °C 17.5 °C 1006.8 hPa Calm     96% 0.0 mm 0 W/m2
06:00 18.1 °C 17.5 °C 1006.8 hPa Calm     96% 0.0 mm 0 W/m2
06:05 18.1 °C 17.5 °C 1006.8 hPa Calm     96% 0.0 mm 0 W/m2
06:10 18.1 °C 17.5 °C 1007.1 hPa Calm     96% 0.0 mm 0 W/m2
06:15 18.1 °C 17.5 °C 1007.1 hPa Calm     96% 0.0 mm 0 W/m2
06:20 18.1 °C 17.5 °C 1007.1 hPa Calm     96% 0.0 mm 0 W/m2
06:25 18 °C 17.4 °C 1007.1 hPa Calm     96% 0.0 mm 0 W/m2
06:30 18 °C 17.4 °C 1007.1 hPa Calm     96% 0.0 mm 0 W/m2
06:35 18.1 °C 17.5 °C 1007.1 hPa Calm     96% 0.0 mm 0 W/m2
06:40 18.1 °C 17.5 °C 1007.1 hPa Calm     96% 0.0 mm 0 W/m2
06:45 18.1 °C 17.5 °C 1007.1 hPa Calm     96% 0.0 mm 5 W/m2
06:50 18.1 °C 17.5 °C 1007.1 hPa Calm     96% 0.0 mm 11 W/m2
06:55 18.1 °C 17.5 °C 1007.1 hPa Calm     96% 0.0 mm 9 W/m2
07:00 18.1 °C 17.5 °C 1007.1 hPa Calm     96% 0.0 mm 9 W/m2
07:05 18.2 °C 17.6 °C 1007.5 hPa Calm     96% 0.0 mm 12 W/m2
07:10 18.2 °C 17.6 °C 1007.1 hPa Calm     96% 0.0 mm 18 W/m2
07:15 18.2 °C 17.6 °C 1007.5 hPa Calm     96% 0.0 mm 28 W/m2
07:20 18.3 °C 17.7 °C 1007.5 hPa Calm     96% 0.0 mm 35 W/m2
07:25 18.3 °C 17.7 °C 1007.5 hPa Calm     96% 0.0 mm 32 W/m2
07:30 18.3 °C 17.8 °C 1007.5 hPa Calm     97% 0.0 mm 35 W/m2
07:35 18.4 °C 17.9 °C 1007.5 hPa Calm     97% 0.0 mm 40 W/m2
07:40 18.4 °C 17.9 °C 1007.5 hPa Calm   1.6 km/h 97% 0.0 mm 44 W/m2
07:45 18.5 °C 17.8 °C 1007.5 hPa Calm   3.2 km/h 96% 0.0 mm 53 W/m2
07:50 18.6 °C 17.9 °C 1007.5 hPa Calm   1.6 km/h 96% 0.0 mm 63 W/m2
07:55 18.6 °C 17.9 °C 1007.5 hPa Calm   3.2 km/h 96% 0.0 mm 74 W/m2
08:00 18.7 °C 18 °C 1007.1 hPa ENE 1.4 km/h 3.2 km/h 96% 0.0 mm 77 W/m2
08:05 18.8 °C 18.1 °C 1007.5 hPa Calm     96% 0.0 mm 69 W/m2
08:10 18.9 °C 18.2 °C 1007.5 hPa Calm   1.6 km/h 96% 0.0 mm 54 W/m2
08:15 19 °C 18.3 °C 1007.5 hPa ENE 1.4 km/h 3.2 km/h 96% 0.0 mm 47 W/m2
08:20 19.1 °C 18.4 °C 1007.8 hPa Calm     96% 0.0 mm 44 W/m2
08:25 19.2 °C 18.5 °C 1007.8 hPa ENE 3.2 km/h 3.2 km/h 96% 0.0 mm 37 W/m2
08:30 19.4 °C 18.7 °C 1007.8 hPa Calm   1.6 km/h 96% 0.0 mm 69 W/m2
08:35 19.7 °C 19 °C 1007.8 hPa ENE 1.4 km/h 1.6 km/h 96% 0.0 mm 118 W/m2
08:40 20 °C 19.2 °C 1007.8 hPa NW 4.7 km/h 6.4 km/h 95% 0.0 mm 114 W/m2
08:45 20.3 °C 19.3 °C 1007.8 hPa NE 1.4 km/h 3.2 km/h 94% 0.0 mm 114 W/m2
08:50 20.4 °C 19.2 °C 1007.8 hPa Calm   3.2 km/h 93% 0.0 mm 359 W/m2
08:55 20.8 °C 19.5 °C 1007.8 hPa ENE 1.4 km/h 4.8 km/h 92% 0.0 mm 199 W/m2
09:00 21 °C 19.3 °C 1007.8 hPa Calm   1.6 km/h 90% 0.0 mm 120 W/m2
09:05 21.2 °C 19.3 °C 1007.8 hPa East 1.4 km/h 1.6 km/h 89% 0.0 mm 113 W/m2
09:10 21.3 °C 19.4 °C 1007.8 hPa Calm     89% 0.0 mm 123 W/m2
09:15 21.4 °C 19.5 °C 1007.8 hPa ENE 3.2 km/h 4.8 km/h 89% 0.0 mm 179 W/m2
09:20 21.6 °C 19.5 °C 1007.8 hPa ENE 1.4 km/h 3.2 km/h 88% 0.0 mm 146 W/m2
09:26 21.7 °C 19.4 °C 1007.8 hPa Calm   1.6 km/h 87% 0.0 mm 123 W/m2
09:31 21.8 °C 19.5 °C 1007.8 hPa Calm     87% 0.0 mm 128 W/m2
09:36 21.9 °C 19.5 °C 1007.5 hPa Calm   3.2 km/h 86% 0.0 mm 81 W/m2
09:41 21.9 °C 19.5 °C 1007.8 hPa Calm   3.2 km/h 86% 0.0 mm 76 W/m2
09:46 22.1 °C 19.3 °C 1007.8 hPa North 1.4 km/h 3.2 km/h 84% 0.0 mm 436 W/m2
09:51 22.4 °C 19.4 °C 1007.8 hPa ENE 1.4 km/h 4.8 km/h 83% 0.0 mm 450 W/m2
09:56 22.7 °C 19.3 °C 1007.8 hPa NE 1.4 km/h 4.8 km/h 81% 0.0 mm 459 W/m2
10:01 22.9 °C 19.5 °C 1007.8 hPa ENE 1.4 km/h 8 km/h 81% 0.0 mm 489 W/m2
10:06 23.1 °C 19.1 °C 1007.8 hPa NE 3.2 km/h 6.4 km/h 78% 0.0 mm 508 W/m2
10:11 23.2 °C 19.1 °C 1007.8 hPa ENE 3.2 km/h 6.4 km/h 78% 0.0 mm 526 W/m2
10:16 23.6 °C 19.3 °C 1007.8 hPa Calm   4.8 km/h 77% 0.0 mm 592 W/m2
10:21 23.9 °C 19.4 °C 1007.8 hPa ENE 7.9 km/h 8 km/h 76% 0.0 mm 322 W/m2
10:26 24.3 °C 19.8 °C 1007.8 hPa Calm   4.8 km/h 76% 0.0 mm 575 W/m2
10:31 24.8 °C 19.8 °C 1007.5 hPa NE 6.4 km/h 6.4 km/h 74% 0.0 mm 547 W/m2
10:36 24.9 °C 19.5 °C 1007.5 hPa ENE 3.2 km/h 8 km/h 72% 0.0 mm 552 W/m2
10:41 25.1 °C 20.1 °C 1007.8 hPa ENE 4.7 km/h 6.4 km/h 74% 0.0 mm 559 W/m2
10:46 25.2 °C 19.8 °C 1007.5 hPa NNE 3.2 km/h 3.2 km/h 72% 0.0 mm 570 W/m2
10:51 25.4 °C 19.8 °C 1007.8 hPa Calm   3.2 km/h 71% 0.0 mm 580 W/m2
10:56 25.7 °C 19.8 °C 1007.5 hPa Calm   6.4 km/h 70% 0.0 mm 592 W/m2
11:01 25.8 °C 19.4 °C 1007.5 hPa East 1.4 km/h 4.8 km/h 68% 0.0 mm 601 W/m2
11:06 26.1 °C 19.7 °C 1007.5 hPa Calm   4.8 km/h 68% 0.0 mm 613 W/m2
11:11 26.2 °C 19.6 °C 1007.5 hPa Calm   4.8 km/h 67% 0.0 mm 622 W/m2
11:16 26.5 °C 19.6 °C 1007.5 hPa ENE 1.4 km/h 4.8 km/h 66% 0.0 mm 633 W/m2
11:21 26.8 °C 19.2 °C 1007.5 hPa ENE 3.2 km/h 9.7 km/h 63% 0.0 mm 645 W/m2
11:26 27 °C 19.9 °C 1007.8 hPa NW 3.2 km/h 4.8 km/h 65% 0.0 mm 654 W/m2
11:31 27.2 °C 19.5 °C 1007.8 hPa NNE 3.2 km/h 9.7 km/h 63% 0.0 mm 663 W/m2
11:36 27.2 °C 20 °C 1007.8 hPa Calm   4.8 km/h 65% 0.0 mm 668 W/m2
11:41 27.3 °C 19.4 °C 1007.8 hPa NE 3.2 km/h 6.4 km/h 62% 0.0 mm 680 W/m2
11:46 27.6 °C 19.4 °C 1007.8 hPa ESE 1.4 km/h 9.7 km/h 61% 0.0 mm 687 W/m2
11:51 27.8 °C 19.6 °C 1007.8 hPa North 1.4 km/h 9.7 km/h 61% 0.0 mm 694 W/m2
11:56 28 °C 19.2 °C 1007.8 hPa ESE 1.4 km/h 6.4 km/h 59% 0.0 mm 705 W/m2
12:01 28.3 °C 19.2 °C 1007.8 hPa ESE 1.4 km/h 4.8 km/h 58% 0.0 mm 712 W/m2
12:06 28.4 °C 19.1 °C 1007.8 hPa Calm   6.4 km/h 57% 0.0 mm 719 W/m2
12:11 28.5 °C 19.2 °C 1007.8 hPa North 4.7 km/h 4.8 km/h 57% 0.0 mm 724 W/m2
12:16 28.8 °C 19.1 °C 1007.8 hPa ENE 7.9 km/h 9.7 km/h 56% 0.0 mm 733 W/m2
12:21 28.9 °C 19.2 °C 1007.5 hPa NNE 4.7 km/h 8 km/h 56% 0.0 mm 745 W/m2
12:26 28.9 °C 19 °C 1007.5 hPa NE 3.2 km/h 6.4 km/h 55% 0.0 mm 752 W/m2
12:31 29.2 °C 18.9 °C 1007.5 hPa NNE 4.7 km/h 9.7 km/h 54% 0.0 mm 749 W/m2
12:36 29.3 °C 19 °C 1007.5 hPa NNW 1.4 km/h 4.8 km/h 54% 0.0 mm 758 W/m2
12:41 29.5 °C 19.5 °C 1007.5 hPa Calm   8 km/h 55% 0.0 mm 763 W/m2
12:46 29.8 °C 18.9 °C 1007.5 hPa Calm   11.3 km/h 52% 0.0 mm 768 W/m2
12:51 29.9 °C 19.3 °C 1007.5 hPa NNW 1.4 km/h 9.7 km/h 53% 0.0 mm 772 W/m2
12:56 30.2 °C 18.9 °C 1007.5 hPa NW 3.2 km/h 9.7 km/h 51% 0.0 mm 775 W/m2
13:01 30.3 °C 18.7 °C 1007.5 hPa ENE 6.4 km/h 17.7 km/h 50% 0.0 mm 780 W/m2
13:06 30.6 °C 19 °C 1007.1 hPa NE 3.2 km/h 9.7 km/h 50% 0.0 mm 779 W/m2
13:11 30.7 °C 19.7 °C 1007.1 hPa ENE 4.7 km/h 17.7 km/h 52% 0.0 mm 786 W/m2
13:16 30.8 °C 19.2 °C 1007.1 hPa Calm   3.2 km/h 50% 0.0 mm 795 W/m2
13:21 31 °C 19 °C 1007.1 hPa NE 3.2 km/h 11.3 km/h 49% 0.0 mm 798 W/m2
13:26 31 °C 18.7 °C 1007.1 hPa Calm   6.4 km/h 48% 0.0 mm 803 W/m2
13:31 31.1 °C 18.5 °C 1007.1 hPa NNE 6.4 km/h 11.3 km/h 47% 0.0 mm 798 W/m2
13:36 31.3 °C 19 °C 1007.1 hPa NE 6.4 km/h 6.4 km/h 48% 0.0 mm 835 W/m2
13:41 31.4 °C 18.4 °C 1007.1 hPa NNE 4.7 km/h 6.4 km/h 46% 0.0 mm 796 W/m2
13:46 31.4 °C 18.4 °C 1006.8 hPa Calm   3.2 km/h 46% 0.0 mm 464 W/m2
13:51 31.3 °C 18.6 °C 1006.8 hPa NE 1.4 km/h 4.8 km/h 47% 0.0 mm 545 W/m2
13:57 31.2 °C 18.5 °C 1007.1 hPa ESE 4.7 km/h 6.4 km/h 47% 0.0 mm 355 W/m2
14:02 31.1 °C 18.1 °C 1006.8 hPa ENE 3.2 km/h 12.9 km/h 46% 0.0 mm 422 W/m2
14:07 31.1 °C 18.1 °C 1006.8 hPa NE 4.7 km/h 12.9 km/h 46% 0.0 mm 663 W/m2
14:12 31.3 °C 17.9 °C 1006.8 hPa Calm   6.4 km/h 45% 0.0 mm 902 W/m2
14:17 31.7 °C 18.3 °C 1006.8 hPa NE 3.2 km/h 6.4 km/h 45% 0.0 mm 835 W/m2
14:22 32.2 °C 18.4 °C 1006.8 hPa ENE 4.7 km/h 6.4 km/h 44% 0.0 mm 867 W/m2
14:27 32.5 °C 17.9 °C 1006.4 hPa ENE 4.7 km/h 9.7 km/h 42% 0.0 mm 559 W/m2
14:32 32.7 °C 19.2 °C 1006.8 hPa ESE 4.7 km/h 6.4 km/h 45% 0.0 mm 397 W/m2
14:37 32.7 °C 18.5 °C 1006.4 hPa NNE 3.2 km/h 11.3 km/h 43% 0.0 mm 357 W/m2
14:42 32.6 °C 18 °C 1006.4 hPa WNW 1.4 km/h 6.4 km/h 42% 0.0 mm 666 W/m2
14:47 32.5 °C 18.3 °C 1006.8 hPa SE 3.2 km/h 6.4 km/h 43% 0.0 mm 285 W/m2
14:57 32.7 °C 16.9 °C 1006.4 hPa East 3.2 km/h 12.9 km/h 39% 0.0 mm 858 W/m2
15:02 32.9 °C 17.5 °C 1006.4 hPa East 11.1 km/h 11.3 km/h 40% 0.0 mm 854 W/m2
15:07 33.2 °C 17.8 °C 1006.4 hPa West 1.4 km/h 3.2 km/h 40% 0.0 mm 803 W/m2
15:12 33.3 °C 17.5 °C 1006.4 hPa WSW 7.9 km/h 9.7 km/h 39% 0.0 mm 770 W/m2
15:17 32.9 °C 17.1 °C 1006.4 hPa NE 6.4 km/h 6.4 km/h 39% 0.0 mm 197 W/m2
15:22 32.6 °C 17.6 °C 1006.4 hPa NE 7.9 km/h 8 km/h 41% 0.0 mm 193 W/m2
15:27 32.3 °C 17.4 °C 1006.4 hPa SSE 1.4 km/h 6.4 km/h 41% 0.0 mm 160 W/m2
15:32 32.1 °C 16.8 °C 1006.4 hPa ENE 4.7 km/h 6.4 km/h 40% 0.0 mm 172 W/m2
15:37 31.9 °C 17.8 °C 1006.1 hPa SE 3.2 km/h 4.8 km/h 43% 0.0 mm 172 W/m2
15:42 31.7 °C 16.8 °C 1006.1 hPa East 3.2 km/h 4.8 km/h 41% 0.0 mm 186 W/m2
15:47 31.4 °C 18 °C 1006.1 hPa ENE 1.4 km/h 6.4 km/h 45% 0.0 mm 185 W/m2
15:52 31.4 °C 18.7 °C 1006.1 hPa Calm   1.6 km/h 47% 0.0 mm 420 W/m2
15:57 31.6 °C 18.2 °C 1006.1 hPa NNE 1.4 km/h 3.2 km/h 45% 0.0 mm 320 W/m2
16:02 32 °C 17.5 °C 1006.1 hPa East 4.7 km/h 9.7 km/h 42% 0.0 mm 763 W/m2
16:07 32.7 °C 17.3 °C 1006.1 hPa NE 1.4 km/h 3.2 km/h 40% 0.0 mm 691 W/m2
16:12 33.2 °C 17 °C 1006.1 hPa NNE 3.2 km/h 4.8 km/h 38% 0.0 mm 661 W/m2
16:17 33.6 °C 17.3 °C 1005.8 hPa ESE 11.1 km/h 11.3 km/h 38% 0.0 mm 657 W/m2
16:22 33.8 °C 17.5 °C 1005.8 hPa SSE 4.7 km/h 4.8 km/h 38% 0.0 mm 677 W/m2
16:27 33.8 °C 17.9 °C 1005.8 hPa NW 3.2 km/h 6.4 km/h 39% 0.0 mm 645 W/m2
16:32 33.9 °C 17.2 °C 1005.8 hPa NNW 4.7 km/h 4.8 km/h 37% 0.0 mm 629 W/m2
16:37 33.8 °C 16.6 °C 1005.8 hPa SSE 1.4 km/h 8 km/h 36% 0.0 mm 165 W/m2
16:42 33.8 °C 17.1 °C 1005.8 hPa WNW 1.4 km/h 3.2 km/h 37% 0.0 mm 691 W/m2
16:47 33.9 °C 16.3 °C 1005.8 hPa NNW 1.4 km/h 4.8 km/h 35% 0.0 mm 700 W/m2
16:52 34.3 °C 16.6 °C 1005.8 hPa Calm   12.9 km/h 35% 0.0 mm 636 W/m2
16:57 34.6 °C 16.4 °C 1005.4 hPa East 7.9 km/h 11.3 km/h 34% 0.0 mm 592 W/m2
17:02 34.6 °C 15.5 °C 1005.8 hPa NNE 3.2 km/h 17.7 km/h 32% 0.0 mm 571 W/m2
17:07 34.4 °C 15.3 °C 1005.8 hPa ENE 3.2 km/h 9.7 km/h 32% 0.0 mm 564 W/m2
17:12 34.5 °C 16.8 °C 1005.4 hPa NE 1.4 km/h 16.1 km/h 35% 0.0 mm 568 W/m2
17:17 34.7 °C 15.6 °C 1005.4 hPa NNE 6.4 km/h 12.9 km/h 32% 0.0 mm 564 W/m2
17:22 34.8 °C 15.2 °C 1005.4 hPa SSE 4.7 km/h 14.5 km/h 31% 0.0 mm 538 W/m2
17:27 34.8 °C 15.7 °C 1005.4 hPa ENE 3.2 km/h 4.8 km/h 32% 0.0 mm 457 W/m2
17:32 34.9 °C 14.7 °C 1005.4 hPa East 13 km/h 12.9 km/h 30% 0.0 mm 490 W/m2
17:37 34.8 °C 15.2 °C 1005.4 hPa East 3.2 km/h 8 km/h 31% 0.0 mm 475 W/m2
17:42 34.8 °C 15.2 °C 1005.4 hPa East 4.7 km/h 11.3 km/h 31% 0.0 mm 475 W/m2
17:47 34.8 °C 14.7 °C 1005.4 hPa East 1.4 km/h 11.3 km/h 30% 0.0 mm 415 W/m2
17:52 34.7 °C 14.6 °C 1005.4 hPa NNE 1.4 km/h 14.5 km/h 30% 0.0 mm 445 W/m2
17:57 34.6 °C 16.4 °C 1005.4 hPa WNW 3.2 km/h 4.8 km/h 34% 0.0 mm 316 W/m2
18:02 34.4 °C 16.3 °C 1005.4 hPa SE 1.4 km/h 4.8 km/h 34% 0.0 mm 246 W/m2
18:07 34.2 °C 16.1 °C 1005.1 hPa SW 1.4 km/h 3.2 km/h 34% 0.0 mm 221 W/m2
18:12 34.1 °C 16.9 °C 1005.4 hPa WSW 1.4 km/h 3.2 km/h 36% 0.0 mm 345 W/m2
18:17 33.9 °C 15.4 °C 1005.4 hPa SW 1.4 km/h 3.2 km/h 33% 0.0 mm 359 W/m2
18:22 33.8 °C 14.8 °C 1005.1 hPa NNE 1.4 km/h 6.4 km/h 32% 0.0 mm 114 W/m2
18:27 33.6 °C 14.1 °C 1005.1 hPa ENE 4.7 km/h 9.7 km/h 31% 0.0 mm 123 W/m2
18:32 33.7 °C 14.7 °C 1005.1 hPa NE 3.2 km/h 6.4 km/h 32% 0.0 mm 350 W/m2
18:37 33.7 °C 15.2 °C 1005.1 hPa SSW 4.7 km/h 6.4 km/h 33% 0.0 mm 123 W/m2
18:42 33.6 °C 14.1 °C 1005.1 hPa SSW 1.4 km/h 6.4 km/h 31% 0.0 mm 70 W/m2
18:47 33.2 °C 17 °C 1005.1 hPa South 3.2 km/h 4.8 km/h 38% 0.0 mm 76 W/m2
18:52 32.6 °C 16.8 °C 1005.1 hPa Calm   1.6 km/h 39% 0.0 mm 86 W/m2
18:57 32.2 °C 17.3 °C 1005.1 hPa South 1.4 km/h 3.2 km/h 41% 0.0 mm 167 W/m2
19:02 31.8 °C 17.7 °C 1005.1 hPa South 1.4 km/h 1.6 km/h 43% 0.0 mm 223 W/m2
19:07 31.6 °C 17.9 °C 1005.1 hPa Calm   3.2 km/h 44% 0.0 mm 137 W/m2
19:12 31.4 °C 17.3 °C 1005.1 hPa Calm   1.6 km/h 43% 0.0 mm 63 W/m2
19:17 31 °C 17.3 °C 1005.1 hPa SE 1.4 km/h 1.6 km/h 44% 0.0 mm 33 W/m2
19:22 30.7 °C 17.8 °C 1005.1 hPa Calm   1.6 km/h 46% 0.0 mm 30 W/m2
19:27 30.1 °C 17.5 °C 1005.1 hPa Calm     47% 0.0 mm 21 W/m2
19:32 29.7 °C 17.5 °C 1005.1 hPa South 1.4 km/h 1.6 km/h 48% 0.0 mm 19 W/m2
19:37 29.2 °C 16.7 °C 1005.1 hPa South 1.4 km/h 3.2 km/h 47% 0.0 mm 18 W/m2
19:42 28.8 °C 16.7 °C 1005.1 hPa Calm   1.6 km/h 48% 0.0 mm 18 W/m2
19:47 28.3 °C 16.6 °C 1005.1 hPa South 3.2 km/h 3.2 km/h 49% 0.0 mm 21 W/m2
19:52 27.9 °C 16.8 °C 1005.1 hPa Calm   4.8 km/h 51% 0.0 mm 21 W/m2
19:57 27.7 °C 16.6 °C 1005.1 hPa South 1.4 km/h 1.6 km/h 51% 0.0 mm 19 W/m2
20:02 27.4 °C 17 °C 1005.1 hPa Calm   1.6 km/h 53% 0.0 mm 19 W/m2
20:07 27.2 °C 16.8 °C 1005.1 hPa South 1.4 km/h 3.2 km/h 53% 0.0 mm 25 W/m2
20:12 26.9 °C 16.5 °C 1005.1 hPa Calm   1.6 km/h 53% 0.0 mm 25 W/m2
20:17 26.8 °C 16.7 °C 1005.1 hPa Calm   3.2 km/h 54% 0.0 mm 18 W/m2
20:22 26.7 °C 16.3 °C 1005.1 hPa Calm   1.6 km/h 53% 0.0 mm 12 W/m2
20:27 26.6 °C 16.5 °C 1005.4 hPa Calm   1.6 km/h 54% 0.0 mm 9 W/m2
20:32 26.4 °C 16.6 °C 1005.4 hPa Calm   1.6 km/h 55% 0.0 mm 5 W/m2
20:37 26.3 °C 16.8 °C 1005.4 hPa South 1.4 km/h 1.6 km/h 56% 0.0 mm 0 W/m2
20:42 26.1 °C 16.4 °C 1005.4 hPa South 1.4 km/h 1.6 km/h 55% 0.0 mm 0 W/m2
20:47 25.9 °C 16.2 °C 1005.4 hPa Calm   1.6 km/h 55% 0.0 mm 0 W/m2
20:52 25.8 °C 16.1 °C 1005.4 hPa South 1.4 km/h 1.6 km/h 55% 0.0 mm 0 W/m2
20:57 25.7 °C 16.3 °C 1005.4 hPa Calm   1.6 km/h 56% 0.0 mm 0 W/m2
21:02 25.7 °C 16 °C 1005.4 hPa Calm   1.6 km/h 55% 0.0 mm 0 W/m2
21:08 25.6 °C 16.2 °C 1005.4 hPa Calm     56% 0.0 mm 0 W/m2
21:13 25.6 °C 16.2 °C 1005.4 hPa Calm   1.6 km/h 56% 0.0 mm 0 W/m2
21:18 25.6 °C 16.4 °C 1005.4 hPa Calm     57% 0.0 mm 0 W/m2
21:23 25.5 °C 16.4 °C 1005.4 hPa Calm     57% 0.0 mm 0 W/m2
21:28 25.4 °C 16.3 °C 1005.8 hPa Calm     57% 0.0 mm 0 W/m2
21:33 25.4 °C 16.3 °C 1005.8 hPa Calm   1.6 km/h 57% 0.0 mm 0 W/m2
21:38 25.3 °C 16.2 °C 1005.8 hPa Calm     57% 0.0 mm 0 W/m2
21:43 25.3 °C 16.2 °C 1005.8 hPa Calm     57% 0.0 mm 0 W/m2
21:48 25.2 °C 16.3 °C 1005.8 hPa Calm   1.6 km/h 58% 0.0 mm 0 W/m2
21:53 25.1 °C 16.8 °C 1005.8 hPa South 1.4 km/h 1.6 km/h 60% 0.0 mm 0 W/m2
21:58 25.1 °C 16 °C 1005.8 hPa Calm   3.2 km/h 57% 0.0 mm 0 W/m2
22:03 25.4 °C 15.7 °C 1005.8 hPa South 4.7 km/h 14.5 km/h 55% 0.0 mm 0 W/m2
22:08 25.9 °C 16.2 °C 1005.8 hPa West 3.2 km/h 8 km/h 55% 0.0 mm 0 W/m2
22:13 26.2 °C 15.9 °C 1005.8 hPa NW 1.4 km/h 14.5 km/h 53% 0.0 mm 0 W/m2
22:18 26.7 °C 16.3 °C 1005.8 hPa ENE 3.2 km/h 9.7 km/h 53% 0.0 mm 0 W/m2
22:23 27.3 °C 16.9 °C 1005.8 hPa Calm   3.2 km/h 53% 0.0 mm 0 W/m2
22:28 27.5 °C 16.8 °C 1005.8 hPa NNE 3.2 km/h 11.3 km/h 52% 0.0 mm 0 W/m2
22:33 27.7 °C 16.6 °C 1005.8 hPa East 4.7 km/h 6.4 km/h 51% 0.0 mm 0 W/m2
22:38 27.9 °C 16.8 °C 1005.8 hPa NNE 4.7 km/h 11.3 km/h 51% 0.0 mm 0 W/m2
22:43 28.1 °C 17 °C 1005.8 hPa NE 6.4 km/h 8 km/h 51% 0.0 mm 0 W/m2
22:48 28.2 °C 17.1 °C 1005.8 hPa East 6.4 km/h 6.4 km/h 51% 0.0 mm 0 W/m2
22:53 28.2 °C 17.1 °C 1005.8 hPa ESE 3.2 km/h 14.5 km/h 51% 0.0 mm 0 W/m2
22:59 28.3 °C 17.2 °C 1005.8 hPa ENE 6.4 km/h 11.3 km/h 51% 0.0 mm 0 W/m2
23:04 28.3 °C 16.9 °C 1005.8 hPa SE 4.7 km/h 14.5 km/h 50% 0.0 mm 0 W/m2
23:09 28.3 °C 17.2 °C 1005.8 hPa ENE 1.4 km/h 11.3 km/h 51% 0.0 mm 0 W/m2
23:14 28.2 °C 17.1 °C 1005.8 hPa ENE 3.2 km/h 6.4 km/h 51% 0.0 mm 0 W/m2
23:19 28.1 °C 17 °C 1005.8 hPa ENE 6.4 km/h 8 km/h 51% 0.0 mm 0 W/m2
23:24 28.1 °C 17 °C 1005.8 hPa SE 4.7 km/h 11.3 km/h 51% 0.0 mm 0 W/m2
23:29 27.9 °C 17.4 °C 1005.8 hPa East 9.7 km/h 9.7 km/h 53% 0.0 mm 0 W/m2
23:34 27.7 °C 16.9 °C 1005.8 hPa East 4.7 km/h 14.5 km/h 52% 0.0 mm 0 W/m2
23:39 27.6 °C 17.2 °C 1005.8 hPa ESE 3.2 km/h 8 km/h 53% 0.0 mm 0 W/m2
23:44 27.5 °C 17.4 °C 1005.8 hPa East 4.7 km/h 9.7 km/h 54% 0.0 mm 0 W/m2
23:49 27.1 °C 18.1 °C 1005.8 hPa SSW 1.4 km/h 3.2 km/h 58% 0.0 mm 0 W/m2
23:54 26.6 °C 18.2 °C 1005.8 hPa West 3.2 km/h 3.2 km/h 60% 0.0 mm 0 W/m2
23:59 25.9 °C 18.1 °C 1005.8 hPa Calm   3.2 km/h 62% 0.0 mm 0 W/m2
Juneau County Weather
Compliments of Weather Underground - 4 mb